X  Zamknij Lotniskowe dane METAR     EDDK Cologne Bonn Airport
Temperatura
14°C Temperatura
2°C Punkt rosy
44% Wilgotność



Wiatr
32 KM/H
20 MPH
9 M/S
17 KTS



230°
SW
Warunki bieżące

Czyste Czyste
Ciśnienie 1005.76 (hPa) - 29.7 (inHg)
Widoczność 6 (mil) - 9.7 (km)
Lotnisko
Kod lotniska EDDK

Położenie: Cologne Bonn Airport
Odległość: 56 (km)

Metar:
EDDK 151220Z AUTO 23017KT 190V250 CAVOK 14/02 Q1006 BECMG 25020G30KT

Czas: 2024-04-15 14:20 CEST